Time;durP1;ratioP1;P1;durP2;ratioP2;P2;SDS_P1;SDS_P2;PMS_P1;PMS_P2;Temp;Humidity;BMP_temperature;BMP_pressure;BME280_temperature;BME280_humidity;BME280_pressure;Samples;Min_cycle;Max_cycle;Signal;HPM_P1;HPM_P2
2022/09/06 00:00:35;;;;;;;;;;;;;;;14.95;59.08;101664.16;12744121;23;19921;-76
2022/09/06 00:05:40;;;;;;;;;;;;;;;14.91;59.36;101665.94;12763466;23;19955;-74
2022/09/06 00:10:44;;;;;;;;;;;;;;;14.81;59.97;101658.16;12762890;23;19955;-74
2022/09/06 00:15:47;;;;;;;;;;;;;;;14.77;59.69;101661.69;12762945;23;19975;-74
2022/09/06 00:20:50;;;;;;;;;;;;;;;14.78;59.34;101655.56;12762904;23;19944;-75
2022/09/06 00:26:01;;;;;;;;;;;;;;;14.70;59.74;101660.84;12778035;23;19919;-73
2022/09/06 00:31:10;;;;;;;;;;;;;;;14.68;59.71;101666.97;12886240;23;19920;-73
2022/09/06 00:36:13;;;;;;;;;;;;;;;14.65;59.84;101659.16;12866771;23;20362;-71
2022/09/06 00:41:18;;;;;;;;;;;;;;;14.59;60.11;101659.16;12886557;23;19999;-74
2022/09/06 00:46:24;;;;;;;;;;;;;;;14.58;59.57;101658.28;12885767;23;20314;-73
2022/09/06 00:51:28;;;;;;;;;;;;;;;14.43;59.96;101666.22;12886271;23;19919;-72
2022/09/06 00:56:33;;;;;;;;;;;;;;;14.49;60.04;101652.25;12885645;23;19990;-72
2022/09/06 01:01:36;;;;;;;;;;;;;;;14.44;60.32;101664.47;12865985;23;19986;-72
2022/09/06 01:06:44;;;;;;;;;;;;;;;14.41;60.49;101664.50;12885516;23;19943;-73
2022/09/06 01:11:56;;;;;;;;;;;;;;;14.31;60.48;101658.44;12865425;23;19995;-74
2022/09/06 01:17:02;;;;;;;;;;;;;;;14.25;60.69;101660.19;12885114;23;19927;-75
2022/09/06 01:22:14;;;;;;;;;;;;;;;14.25;60.85;101660.19;12884570;23;19995;-75
2022/09/06 01:27:32;;;;;;;;;;;;;;;14.21;61.08;101650.63;12866516;23;20283;-72
2022/09/06 01:32:40;;;;;;;;;;;;;;;14.11;61.50;101657.63;12883482;23;20377;-75
2022/09/06 01:37:43;;;;;;;;;;;;;;;14.06;61.57;101656.78;12883316;23;20275;-70
2022/09/06 01:42:48;;;;;;;;;;;;;;;13.99;61.91;101656.78;12866405;23;20215;-73
2022/09/06 01:47:57;;;;;;;;;;;;;;;13.94;61.95;101642.00;12866338;23;20263;-73
2022/09/06 01:53:03;;;;;;;;;;;;;;;13.96;62.03;101654.19;12887319;23;20283;-73
2022/09/06 01:58:16;;;;;;;;;;;;;;;13.79;62.43;101652.50;12886589;23;19970;-71
2022/09/06 02:03:25;;;;;;;;;;;;;;;13.83;62.68;101645.53;12885930;23;20394;-75
2022/09/06 02:08:31;;;;;;;;;;;;;;;13.77;62.83;101646.41;12885486;23;20344;-71
2022/09/06 02:13:38;;;;;;;;;;;;;;;13.81;62.91;101649.88;12885295;23;19998;-72
2022/09/06 02:18:44;;;;;;;;;;;;;;;13.79;63.12;101654.22;12885679;23;20068;-72
2022/09/06 02:23:49;;;;;;;;;;;;;;;13.87;62.73;101652.50;12870360;23;19951;-72
2022/09/06 02:28:52;;;;;;;;;;;;;;;13.79;63.32;101654.22;12870924;23;19920;-73
2022/09/06 02:33:57;;;;;;;;;;;;;;;13.82;63.00;101664.69;12868942;23;20022;-72
2022/09/06 02:39:00;;;;;;;;;;;;;;;13.75;63.63;101669.03;12868906;23;19987;-74
2022/09/06 02:44:03;;;;;;;;;;;;;;;13.73;63.78;101670.78;12868909;23;19987;-72
2022/09/06 02:49:08;;;;;;;;;;;;;;;13.71;63.84;101664.72;12868764;23;19998;-73
2022/09/06 02:54:11;;;;;;;;;;;;;;;13.69;64.02;101669.06;12868482;23;20002;-73
2022/09/06 02:59:14;;;;;;;;;;;;;;;13.72;64.31;101668.16;12868471;23;19926;-70
2022/09/06 03:04:18;;;;;;;;;;;;;;;13.76;64.43;101660.34;12868414;23;19920;-71
2022/09/06 03:09:21;;;;;;;;;;;;;;;13.80;64.72;101651.63;12868270;23;19983;-74
2022/09/06 03:14:24;;;;;;;;;;;;;;;13.83;64.62;101646.41;12866767;23;19924;-76
2022/09/06 03:19:28;;;;;;;;;;;;;;;13.83;64.45;101645.53;12861595;23;19924;-74
2022/09/06 03:24:32;;;;;;;;;;;;;;;13.80;64.74;101646.41;12860897;23;20039;-74
2022/09/06 03:29:35;;;;;;;;;;;;;;;13.83;64.85;101656.84;12861031;23;20087;-73
2022/09/06 03:34:39;;;;;;;;;;;;;;;13.87;64.71;101649.88;12862534;23;20030;-75
2022/09/06 03:39:42;;;;;;;;;;;;;;;13.85;64.99;101649.88;12862974;23;20014;-75
2022/09/06 03:44:45;;;;;;;;;;;;;;;13.88;64.85;101655.09;12861811;23;20315;-73
2022/09/06 03:49:50;;;;;;;;;;;;;;;13.86;64.97;101659.44;12835721;23;19965;-75
2022/09/06 03:54:53;;;;;;;;;;;;;;;13.88;64.22;101652.47;12860707;23;20288;-73
2022/09/06 03:59:56;;;;;;;;;;;;;;;14.04;64.12;101644.59;12858031;23;19935;-72
2022/09/06 04:05:01;;;;;;;;;;;;;;;13.96;64.66;101636.78;12865277;23;19935;-75
2022/09/06 04:10:04;;;;;;;;;;;;;;;13.93;64.57;101642.91;12859529;23;19924;-67
2022/09/06 04:15:08;;;;;;;;;;;;;;;13.88;64.76;101644.66;12859899;23;20007;-73
2022/09/06 04:20:12;;;;;;;;;;;;;;;13.91;64.63;101641.16;12860402;23;19930;-74
2022/09/06 04:25:16;;;;;;;;;;;;;;;13.78;65.04;101635.13;12871864;23;20015;-76
2022/09/06 04:30:19;;;;;;;;;;;;;;;13.71;65.55;101638.63;12859358;23;19947;-74
2022/09/06 04:35:23;;;;;;;;;;;;;;;13.86;65.04;101640.28;12879494;23;19951;-74
2022/09/06 04:40:26;;;;;;;;;;;;;;;13.89;65.43;101649.00;12859704;23;20329;-74
2022/09/06 04:45:29;;;;;;;;;;;;;;;13.85;65.11;101649.00;12858927;23;20015;-74
2022/09/06 04:50:34;;;;;;;;;;;;;;;13.85;65.37;101644.66;12879527;23;19995;-74
2022/09/06 04:55:37;;;;;;;;;;;;;;;13.73;64.83;101649.03;12878661;23;20003;-74
2022/09/06 05:00:43;;;;;;;;;;;;;;;13.87;65.08;101647.28;12879126;23;20291;-74
2022/09/06 05:05:47;;;;;;;;;;;;;;;13.89;64.81;101646.38;12880298;23;20393;-74
2022/09/06 05:10:51;;;;;;;;;;;;;;;13.92;65.48;101640.28;12881939;23;20010;-73
2022/09/06 05:15:54;;;;;;;;;;;;;;;14.07;64.97;101641.97;12860073;23;20006;-74
2022/09/06 05:20:58;;;;;;;;;;;;;;;14.13;65.15;101639.34;12860319;23;20002;-74
2022/09/06 05:26:02;;;;;;;;;;;;;;;14.17;64.71;101641.91;12864054;23;20226;-75
2022/09/06 05:31:05;;;;;;;;;;;;;;;14.08;64.41;101646.31;12865196;23;19991;-75
2022/09/06 05:36:11;;;;;;;;;;;;;;;14.13;64.22;101641.97;12864935;23;19923;-74
2022/09/06 05:41:14;;;;;;;;;;;;;;;14.23;64.19;101635.81;12864767;23;19991;-75
2022/09/06 05:46:17;;;;;;;;;;;;;;;14.27;64.37;101632.34;12865216;23;20304;-76
2022/09/06 05:51:23;;;;;;;;;;;;;;;14.27;64.32;101640.19;12865144;23;20097;-74
2022/09/06 05:56:26;;;;;;;;;;;;;;;14.21;64.31;101638.44;12864332;23;20002;-76
2022/09/06 06:01:31;;;;;;;;;;;;;;;14.36;63.59;101633.16;12864577;23;20347;-75
2022/09/06 06:06:35;;;;;;;;;;;;;;;14.47;63.50;101633.09;12865790;23;19999;-72
2022/09/06 06:11:38;;;;;;;;;;;;;;;14.49;63.38;101631.34;12864078;23;20003;-75
2022/09/06 06:16:41;;;;;;;;;;;;;;;14.53;63.07;101625.25;12838539;23;19928;-74
2022/09/06 06:21:46;;;;;;;;;;;;;;;14.58;62.44;101629.53;12864842;23;20087;-75
2022/09/06 06:26:49;;;;;;;;;;;;;;;14.71;61.87;101630.34;12864644;23;20023;-74
2022/09/06 06:31:52;;;;;;;;;;;;;;;14.79;61.36;101639.88;12864816;23;20003;-72
2022/09/06 06:36:56;;;;;;;;;;;;;;;14.84;61.03;101632.03;12862080;23;20002;-74
2022/09/06 06:42:02;;;;;;;;;;;;;;;14.92;60.78;101630.19;12863580;23;21407;-75
2022/09/06 06:47:05;;;;;;;;;;;;;;;15.05;60.40;101631.84;12862565;23;19999;-78
2022/09/06 06:52:10;;;;;;;;;;;;;;;15.12;60.31;101643.13;12862113;23;20560;-74
2022/09/06 06:57:13;;;;;;;;;;;;;;;15.20;58.90;101644.81;12861269;23;19958;-75
2022/09/06 07:02:16;;;;;;;;;;;;;;;15.32;58.13;101647.31;12860731;23;20049;-75
2022/09/06 07:07:21;;;;;;;;;;;;;;;15.38;57.54;101651.59;12860917;23;19924;-74
2022/09/06 07:12:31;;;;;;;;;;;;;;;15.52;56.85;101655.00;12864941;23;19999;-74
2022/09/06 07:17:34;;;;;;;;;;;;;;;15.60;55.90;101648.81;12861363;23;19920;-75
2022/09/06 07:22:39;;;;;;;;;;;;;;;15.73;56.06;101652.16;12860371;23;19951;-75
2022/09/06 07:27:43;;;;;;;;;;;;;;;15.80;55.80;101652.09;12860265;23;19958;-73
2022/09/06 07:32:47;;;;;;;;;;;;;;;15.85;55.04;101647.69;12860136;23;19928;-75
2022/09/06 07:37:55;;;;;;;;;;;;;;;15.88;53.80;101645.03;12865547;23;19983;-74
2022/09/06 07:42:58;;;;;;;;;;;;;;;16.03;53.54;101644.00;12867061;23;20003;-75
2022/09/06 07:48:01;;;;;;;;;;;;;;;16.12;53.14;101639.50;12867046;23;20292;-76
2022/09/06 07:53:06;;;;;;;;;;;;;;;16.24;52.47;101637.63;12867264;23;19955;-76
2022/09/06 07:58:15;;;;;;;;;;;;;;;16.34;52.18;101637.47;12872434;23;20042;-76
2022/09/06 08:03:18;;;;;;;;;;;;;;;16.45;51.84;101632.94;12867131;23;19987;-65
2022/09/06 08:08:24;;;;;;;;;;;;;;;16.51;51.75;101639.91;12866937;23;19988;-74
2022/09/06 08:13:51;;;;;;;;;;;;;;;16.59;51.37;101635.41;12862912;23;20056;-68
2022/09/06 08:18:55;;;;;;;;;;;;;;;16.63;51.12;101624.00;12864316;23;19919;-68
2022/09/06 08:24:00;;;;;;;;;;;;;;;16.78;50.50;101634.25;12859105;23;20411;-66
2022/09/06 08:29:05;;;;;;;;;;;;;;;16.88;50.31;101633.22;12859309;23;19928;-69
2022/09/06 08:34:08;;;;;;;;;;;;;;;16.97;49.69;101623.47;12858694;23;20201;-67
2022/09/06 08:39:13;;;;;;;;;;;;;;;17.09;49.38;101614.50;12859205;23;20342;-76
2022/09/06 08:44:18;;;;;;;;;;;;;;;17.18;48.38;101614.38;12862461;23;20395;-74
2022/09/06 08:49:43;;;;;;;;;;;;;;;17.31;48.17;101608.00;12859262;23;19928;-73
2022/09/06 08:54:51;;;;;;;;;;;;;;;17.43;48.15;101605.16;12862805;23;20410;-72
2022/09/06 08:59:57;;;;;;;;;;;;;;;17.55;47.26;101602.34;12859608;23;19920;-76
2022/09/06 09:05:04;;;;;;;;;;;;;;;17.71;47.50;101587.16;12865903;23;19924;-74
2022/09/06 09:10:10;;;;;;;;;;;;;;;17.86;47.39;101589.50;12863837;23;20335;-75
2022/09/06 09:15:14;;;;;;;;;;;;;;;18.07;46.81;101587.28;12862776;23;20329;-75
2022/09/06 09:20:18;;;;;;;;;;;;;;;18.21;46.08;101579.09;12858538;23;19991;-75
2022/09/06 09:25:24;;;;;;;;;;;;;;;18.33;45.59;101569.19;12858401;23;19973;-73
2022/09/06 09:30:44;;;;;;;;;;;;;;;18.54;45.98;101562.59;12858335;23;19927;-74
2022/09/06 09:35:53;;;;;;;;;;;;;;;18.82;45.38;101568.06;12859196;23;20030;-74
2022/09/06 09:40:58;;;;;;;;;;;;;;;19.07;44.44;101561.31;12858319;23;20007;-73
2022/09/06 09:46:09;;;;;;;;;;;;;;;19.68;43.17;101552.63;12862257;23;20379;-74
2022/09/06 09:51:19;;;;;;;;;;;;;;;21.68;40.06;101535.50;12862432;23;20016;-76
2022/09/06 09:56:42;;;;;;;;;;;;;;;21.69;39.86;101535.44;12860893;23;19935;-76
2022/09/06 10:01:45;;;;;;;;;;;;;;;21.74;39.55;101520.28;12860561;23;19947;-74
2022/09/06 10:06:48;;;;;;;;;;;;;;;21.84;39.26;101518.19;12860912;23;19994;-76
2022/09/06 10:12:15;;;;;;;;;;;;;;;22.16;39.31;101509.03;12861505;23;19919;-72
2022/09/06 10:17:20;;;;;;;;;;;;;;;22.25;39.11;101509.50;12882700;23;20210;-73
2022/09/06 10:22:26;;;;;;;;;;;;;;;22.36;39.21;101506.44;12861856;23;19999;-74
2022/09/06 10:27:32;;;;;;;;;;;;;;;22.52;38.42;101491.66;12861683;23;20402;-79
2022/09/06 10:32:40;;;;;;;;;;;;;;;22.78;38.45;101494.09;12863990;23;19935;-73
2022/09/06 10:37:47;;;;;;;;;;;;;;;22.99;37.57;101489.72;12865700;23;19931;-71
2022/09/06 10:42:52;;;;;;;;;;;;;;;23.03;37.01;101494.78;12882597;23;20305;-72
2022/09/06 10:47:59;;;;;;;;;;;;;;;23.34;36.32;101473.13;12863149;23;19967;-72
2022/09/06 10:53:06;;;;;;;;;;;;;;;23.72;35.74;101469.59;12881763;23;20006;-73
2022/09/06 10:58:11;;;;;;;;;;;;;;;23.78;35.28;101461.38;12862982;23;20003;-73
2022/09/06 11:03:18;;;;;;;;;;;;;;;24.20;34.10;101456.69;12882063;23;20345;-73
2022/09/06 11:08:46;;;;;;;;;;;;;;;24.67;33.91;101454.31;12861540;23;19944;-70
2022/09/06 11:13:51;;;;;;;;;;;;;;;24.99;33.50;101438.47;12860498;23;19994;-75
2022/09/06 11:18:57;;;;;;;;;;;;;;;25.44;32.38;101442.34;12861622;23;19924;-71
2022/09/06 11:24:06;;;;;;;;;;;;;;;25.62;32.39;101444.84;12880987;23;19948;-73
2022/09/06 11:29:16;;;;;;;;;;;;;;;26.25;31.84;101436.88;12866600;23;19934;-71
2022/09/06 11:34:20;;;;;;;;;;;;;;;26.89;31.38;101424.16;12881555;23;20034;-73
2022/09/06 11:39:25;;;;;;;;;;;;;;;27.22;30.23;101417.63;12860005;23;20002;-75
2022/09/06 11:44:54;;;;;;;;;;;;;;;27.55;29.92;101404.00;12880302;23;19999;-72
2022/09/06 11:49:57;;;;;;;;;;;;;;;28.03;29.63;101398.19;12860734;23;20292;-73
2022/09/06 11:55:00;;;;;;;;;;;;;;;28.34;28.77;101395.19;12860446;23;19920;-72
2022/09/06 12:00:07;;;;;;;;;;;;;;;28.65;28.01;101379.78;12862519;23;19962;-72
2022/09/06 12:05:15;;;;;;;;;;;;;;;28.98;27.80;101377.44;12883780;23;20023;-72
2022/09/06 12:10:48;;;;;;;;;;;;;;;29.26;27.06;101370.06;12887111;23;20005;-73
2022/09/06 12:15:54;;;;;;;;;;;;;;;29.25;26.98;101360.31;12716902;23;19920;-72
2022/09/06 12:21:03;;;;;;;;;;;;;;;29.33;26.36;101357.09;12885546;23;19990;-74
2022/09/06 12:26:06;;;;;;;;;;;;;;;30.79;25.55;101348.69;12885452;23;19954;-72
2022/09/06 12:31:27;;;;;;;;;;;;;;;33.06;23.71;101330.47;12885271;23;19991;-73
2022/09/06 12:36:31;;;;;;;;;;;;;;;33.99;22.83;101323.78;12865359;23;20009;-72
2022/09/06 12:41:37;;;;;;;;;;;;;;;34.06;21.92;101295.25;12866480;23;19948;-72
2022/09/06 12:46:48;;;;;;;;;;;;;;;34.42;22.14;101299.88;12883982;23;19932;-75
2022/09/06 12:52:06;;;;;;;;;;;;;;;33.50;22.21;101328.25;12883663;23;19995;-71
2022/09/06 12:57:13;;;;;;;;;;;;;;;32.50;23.74;101319.25;12865746;23;19962;-73
2022/09/06 13:02:20;;;;;;;;;;;;;;;31.61;24.33;101325.00;12858633;23;19959;-70
2022/09/06 13:07:25;;;;;;;;;;;;;;;31.37;24.28;101318.09;12875420;23;20334;-75
2022/09/06 13:12:31;;;;;;;;;;;;;;;30.45;24.65;101317.41;12876274;23;19951;-72
2022/09/06 13:17:37;;;;;;;;;;;;;;;30.31;24.68;101320.28;12857746;23;19943;-73
2022/09/06 13:22:42;;;;;;;;;;;;;;;29.88;25.58;101324.47;12875845;23;19999;-72
2022/09/06 13:27:48;;;;;;;;;;;;;;;29.14;25.18;101327.28;12869734;23;20370;-74
2022/09/06 13:32:53;;;;;;;;;;;;;;;28.69;25.31;101328.69;12875830;23;19947;-77
2022/09/06 13:38:10;;;;;;;;;;;;;;;28.19;25.96;101340.16;12858241;23;20371;-74
2022/09/06 13:43:14;;;;;;;;;;;;;;;27.51;26.44;101337.63;12857736;23;20010;-76
2022/09/06 13:48:18;;;;;;;;;;;;;;;27.05;27.27;101327.16;12863397;23;20003;-68
2022/09/06 13:53:31;;;;;;;;;;;;;;;26.37;27.76;101333.16;12882629;23;19920;-67
2022/09/06 13:58:34;;;;;;;;;;;;;;;25.84;28.33;101325.66;12863702;23;20027;-65
2022/09/06 14:03:40;;;;;;;;;;;;;;;25.83;28.87;101315.97;12862022;23;19931;-67
2022/09/06 14:08:43;;;;;;;;;;;;;;;25.59;29.27;101305.88;12880029;23;20331;-68
2022/09/06 14:14:08;;;;;;;;;;;;;;;25.52;29.50;101304.50;12862583;23;19959;-65
2022/09/06 14:19:13;;;;;;;;;;;;;;;25.24;29.78;101304.28;12861167;23;19955;-70
2022/09/06 14:24:16;;;;;;;;;;;;;;;24.99;29.76;101302.97;12861766;23;20038;-65
2022/09/06 14:29:19;;;;;;;;;;;;;;;24.99;29.52;101299.44;12860907;23;19958;-66
2022/09/06 14:34:24;;;;;;;;;;;;;;;24.75;29.92;101306.09;12861359;23;19951;-68
2022/09/06 14:39:27;;;;;;;;;;;;;;;24.41;30.66;101296.38;12880372;23;20006;-66
2022/09/06 14:44:30;;;;;;;;;;;;;;;24.09;30.99;101299.81;12880925;23;19995;-66
2022/09/06 14:49:35;;;;;;;;;;;;;;;23.79;31.21;101294.22;12880787;23;19930;-68
2022/09/06 14:54:38;;;;;;;;;;;;;;;23.75;31.66;101286.47;12860135;23;20200;-66
2022/09/06 14:59:41;;;;;;;;;;;;;;;23.49;32.47;101281.59;12881429;23;20213;-68
2022/09/06 15:04:46;;;;;;;;;;;;;;;22.92;32.85;101282.53;12862122;23;20303;-66
2022/09/06 15:09:49;;;;;;;;;;;;;;;22.54;32.98;101273.69;12860494;23;19928;-66
2022/09/06 15:14:52;;;;;;;;;;;;;;;22.25;33.56;101266.16;12860916;23;19947;-67
2022/09/06 15:19:57;;;;;;;;;;;;;;;22.10;33.62;101268.59;12861256;23;20363;-67
2022/09/06 15:25:00;;;;;;;;;;;;;;;22.01;34.24;101269.84;12861094;23;19920;-66
2022/09/06 15:30:03;;;;;;;;;;;;;;;21.87;34.00;101269.56;12862868;23;19936;-65
2022/09/06 15:35:08;;;;;;;;;;;;;;;21.73;34.75;101262.19;12863268;23;19920;-68
2022/09/06 15:40:11;;;;;;;;;;;;;;;21.52;35.16;101259.53;12861883;23;19935;-69
2022/09/06 15:45:15;;;;;;;;;;;;;;;21.39;34.58;101259.19;12861317;23;19959;-67
2022/09/06 15:50:19;;;;;;;;;;;;;;;21.27;34.68;101253.53;12859621;23;19966;-66
2022/09/06 15:55:57;;;;;;;;;;;;;;;21.11;36.03;101252.41;12864768;23;19947;-66
2022/09/06 16:01:04;;;;;;;;;;;;;;;20.95;36.34;101254.75;12887675;23;19944;-68
2022/09/06 16:06:11;;;;;;;;;;;;;;;20.81;35.95;101248.28;12867025;23;19931;-70
2022/09/06 16:11:32;;;;;;;;;;;;;;;20.74;35.76;101244.16;12887626;23;19959;-67
2022/09/06 16:16:35;;;;;;;;;;;;;;;20.57;36.47;101242.16;12865789;23;19920;-69
2022/09/06 16:21:41;;;;;;;;;;;;;;;20.47;36.94;101231.06;12865950;23;19923;-67
2022/09/06 16:26:45;;;;;;;;;;;;;;;20.30;37.40;101236.09;12859408;23;19924;-67
2022/09/06 16:31:48;;;;;;;;;;;;;;;20.21;37.79;101228.50;12859151;23;20003;-65
2022/09/06 16:36:54;;;;;;;;;;;;;;;20.12;38.39;101231.44;12858556;23;19934;-68
2022/09/06 16:41:57;;;;;;;;;;;;;;;20.00;38.82;101239.75;12859457;23;20517;-67
2022/09/06 16:47:02;;;;;;;;;;;;;;;19.86;38.94;101239.41;12858754;23;19990;-65
2022/09/06 16:52:07;;;;;;;;;;;;;;;19.72;39.76;101244.28;12858663;23;20028;-65
2022/09/06 16:57:10;;;;;;;;;;;;;;;19.62;40.03;101248.13;12858841;23;20003;-67
2022/09/06 17:02:13;;;;;;;;;;;;;;;19.49;40.06;101249.44;12859037;23;20538;-65
2022/09/06 17:07:17;;;;;;;;;;;;;;;19.37;40.62;101247.19;12858534;23;19966;-66
2022/09/06 17:12:21;;;;;;;;;;;;;;;19.20;40.58;101246.81;12859225;23;20002;-66
2022/09/06 17:17:24;;;;;;;;;;;;;;;19.14;41.07;101250.50;12857593;23;20023;-67
2022/09/06 17:22:28;;;;;;;;;;;;;;;18.99;41.72;101250.09;12857702;23;19959;-66
2022/09/06 17:27:31;;;;;;;;;;;;;;;18.86;42.14;101251.41;12858047;23;19947;-72
2022/09/06 17:32:35;;;;;;;;;;;;;;;18.85;41.88;101255.78;12859017;23;19994;-70
2022/09/06 17:37:39;;;;;;;;;;;;;;;18.73;42.67;101256.16;12860031;23;19998;-68
2022/09/06 17:42:42;;;;;;;;;;;;;;;18.65;42.84;101263.41;12860521;23;20299;-72
2022/09/06 17:47:45;;;;;;;;;;;;;;;18.59;42.89;101278.47;12858921;23;20347;-71
2022/09/06 17:52:52;;;;;;;;;;;;;;;18.45;42.62;101268.34;12857742;23;19943;-71
2022/09/06 17:57:55;;;;;;;;;;;;;;;18.28;42.73;101274.03;12866914;23;20014;-73
2022/09/06 18:02:58;;;;;;;;;;;;;;;18.25;43.10;101279.38;12858021;23;20007;-70
2022/09/06 18:08:03;;;;;;;;;;;;;;;18.14;43.29;101280.56;12857833;23;19963;-71
2022/09/06 18:13:06;;;;;;;;;;;;;;;18.06;43.62;101283.41;12858339;23;20002;-71
2022/09/06 18:18:09;;;;;;;;;;;;;;;17.99;44.19;101281.81;12857577;23;20415;-72
2022/09/06 18:23:14;;;;;;;;;;;;;;;17.89;43.85;101285.59;12857417;23;19928;-71
2022/09/06 18:28:17;;;;;;;;;;;;;;;17.87;44.17;101279.50;12861121;23;19948;-72
2022/09/06 18:33:22;;;;;;;;;;;;;;;17.77;44.22;101293.78;12868049;23;20283;-73
2022/09/06 18:38:29;;;;;;;;;;;;;;;17.65;44.15;101296.72;12869083;23;19951;-74
2022/09/06 18:43:33;;;;;;;;;;;;;;;17.62;44.54;101295.91;12881493;23;20274;-72
2022/09/06 18:48:38;;;;;;;;;;;;;;;17.58;44.35;101296.88;12868714;23;20381;-73
2022/09/06 18:53:46;;;;;;;;;;;;;;;17.43;44.59;101292.81;12868440;23;19943;-70
2022/09/06 18:58:50;;;;;;;;;;;;;;;17.34;44.91;101293.03;12880730;23;19920;-74
2022/09/06 19:03:53;;;;;;;;;;;;;;;17.22;44.63;101301.19;12842567;23;19920;-72
2022/09/06 19:08:59;;;;;;;;;;;;;;;17.18;44.75;101286.41;12869084;23;19944;-73
2022/09/06 19:14:02;;;;;;;;;;;;;;;17.09;44.74;101290.09;12868139;23;19920;-73
2022/09/06 19:19:06;;;;;;;;;;;;;;;17.07;44.61;101293.63;12868025;23;19920;-72
2022/09/06 19:24:13;;;;;;;;;;;;;;;16.98;45.17;101293.84;12866402;23;20282;-71
2022/09/06 19:29:17;;;;;;;;;;;;;;;16.94;44.98;101292.19;12860397;23;19947;-70
2022/09/06 19:34:21;;;;;;;;;;;;;;;16.78;45.20;101285.50;12860294;23;20389;-72
2022/09/06 19:39:29;;;;;;;;;;;;;;;16.73;45.66;101296.09;12860481;23;19924;-71
2022/09/06 19:44:38;;;;;;;;;;;;;;;16.65;46.47;101282.25;12874039;23;19987;-72
2022/09/06 19:49:41;;;;;;;;;;;;;;;16.57;46.55;101289.44;12861232;23;19959;-72
2022/09/06 19:54:46;;;;;;;;;;;;;;;16.42;46.71;101283.59;12860745;23;19942;-72
2022/09/06 19:59:49;;;;;;;;;;;;;;;16.38;47.22;101281.91;12859175;23;19952;-70
2022/09/06 20:04:52;;;;;;;;;;;;;;;16.27;47.58;101284.75;12859754;23;19995;-71
2022/09/06 20:09:56;;;;;;;;;;;;;;;16.26;47.61;101275.16;12860928;23;19924;-74
2022/09/06 20:15:00;;;;;;;;;;;;;;;16.20;47.69;101283.13;12859747;23;19954;-72
2022/09/06 20:20:04;;;;;;;;;;;;;;;16.09;47.66;101275.47;12859226;23;20011;-73
2022/09/06 20:25:10;;;;;;;;;;;;;;;15.95;47.88;101280.09;12858976;23;20023;-70
2022/09/06 20:30:13;;;;;;;;;;;;;;;15.94;47.87;101277.50;12861769;23;20314;-72
2022/09/06 20:35:17;;;;;;;;;;;;;;;15.78;48.36;101282.13;12859643;23;20025;-70
2022/09/06 20:40:21;;;;;;;;;;;;;;;15.70;48.82;101283.97;12860270;23;19942;-73
2022/09/06 20:45:25;;;;;;;;;;;;;;;15.64;48.88;101280.59;12861331;23;19991;-70
2022/09/06 20:50:28;;;;;;;;;;;;;;;15.61;49.71;101276.31;12860282;23;20638;-69
2022/09/06 20:55:32;;;;;;;;;;;;;;;15.55;50.22;101271.16;12859023;23;19998;-74
2022/09/06 21:00:39;;;;;;;;;;;;;;;15.44;51.15;101270.47;12858571;23;19931;-66
2022/09/06 21:05:42;;;;;;;;;;;;;;;15.18;51.94;101269.06;12858480;23;19999;-66
2022/09/06 21:10:46;;;;;;;;;;;;;;;15.05;52.52;101265.75;12878542;23;19995;-63
2022/09/06 21:15:49;;;;;;;;;;;;;;;14.97;53.00;101265.88;12878689;23;19955;-64
2022/09/06 21:20:53;;;;;;;;;;;;;;;15.05;52.96;101271.00;12859258;23;19959;-67
2022/09/06 21:25:58;;;;;;;;;;;;;;;15.03;53.23;101268.41;12878884;23;20074;-67
2022/09/06 21:31:02;;;;;;;;;;;;;;;14.94;53.63;101265.06;12859473;23;19995;-70
2022/09/06 21:36:06;;;;;;;;;;;;;;;14.93;53.16;101273.78;12858727;23;19950;-67
2022/09/06 21:41:11;;;;;;;;;;;;;;;14.80;53.54;101261.75;12879881;23;20014;-65
2022/09/06 21:46:15;;;;;;;;;;;;;;;14.75;53.04;101266.19;12858664;23;19924;-68
2022/09/06 21:51:19;;;;;;;;;;;;;;;14.69;53.52;101256.66;12856949;23;20007;-71
2022/09/06 21:56:26;;;;;;;;;;;;;;;14.75;53.43;101260.97;12857649;23;20006;-73
2022/09/06 22:01:30;;;;;;;;;;;;;;;14.63;53.50;101261.94;12879174;23;20357;-71
2022/09/06 22:06:35;;;;;;;;;;;;;;;14.41;54.45;101257.88;12882336;23;19946;-72
2022/09/06 22:11:40;;;;;;;;;;;;;;;14.37;54.72;101260.53;12864874;23;19920;-73
2022/09/06 22:16:44;;;;;;;;;;;;;;;14.27;55.08;101259.75;12884492;23;19934;-71
2022/09/06 22:21:47;;;;;;;;;;;;;;;14.25;55.52;101258.91;12864628;23;20224;-70
2022/09/06 22:26:52;;;;;;;;;;;;;;;14.23;55.58;101258.06;12862930;23;20264;-70
2022/09/06 22:31:55;;;;;;;;;;;;;;;14.16;55.94;101265.94;12862743;23;19947;-71
2022/09/06 22:36:58;;;;;;;;;;;;;;;14.06;56.68;101266.94;12861905;23;19923;-70
2022/09/06 22:42:03;;;;;;;;;;;;;;;13.90;57.77;101267.09;12862881;23;19952;-71
2022/09/06 22:47:07;;;;;;;;;;;;;;;14.00;57.43;101272.19;12861730;23;20002;-67
2022/09/06 22:52:11;;;;;;;;;;;;;;;13.84;58.79;101271.47;12862319;23;20359;-72
2022/09/06 22:57:16;;;;;;;;;;;;;;;13.90;58.71;101272.31;12861960;23;19955;-70
2022/09/06 23:02:19;;;;;;;;;;;;;;;13.83;59.50;101260.19;12861192;23;20410;-71
2022/09/06 23:07:22;;;;;;;;;;;;;;;13.76;59.63;101261.13;12861237;23;20011;-70
2022/09/06 23:12:27;;;;;;;;;;;;;;;13.66;59.90;101264.69;12861797;23;19999;-71
2022/09/06 23:17:30;;;;;;;;;;;;;;;13.64;59.88;101266.44;12860560;23;19987;-72
2022/09/06 23:22:33;;;;;;;;;;;;;;;13.55;60.18;101266.50;12860814;23;19927;-71
2022/09/06 23:27:38;;;;;;;;;;;;;;;13.49;60.37;101266.56;12860707;23;19993;-72
2022/09/06 23:32:41;;;;;;;;;;;;;;;13.48;60.80;101262.19;12860844;23;19951;-71
2022/09/06 23:37:45;;;;;;;;;;;;;;;13.33;61.30;101266.66;12860953;23;19991;-72
2022/09/06 23:42:49;;;;;;;;;;;;;;;13.25;61.94;101251.09;12863196;23;20005;-68
2022/09/06 23:47:52;;;;;;;;;;;;;;;13.21;61.98;101256.31;12867620;23;20365;-68
2022/09/06 23:52:56;;;;;;;;;;;;;;;13.27;61.81;101245.88;12867694;23;19943;-71
2022/09/06 23:58:00;;;;;;;;;;;;;;;13.24;61.35;101245.84;12867625;23;19943;-68
